Time;durP1;ratioP1;P1;durP2;ratioP2;P2;SDS_P1;SDS_P2;PMS_P1;PMS_P2;Temp;Humidity;BMP_temperature;BMP_pressure;BME280_temperature;BME280_humidity;BME280_pressure;Samples;Min_cycle;Max_cycle;Signal;HPM_P1;HPM_P2
2022/07/22 00:01:20;;;;;;;6.57;2.55;;;19.60;76.90;;;;;;5016139;28;20037;-67
2022/07/22 00:03:46;;;;;;;6.60;2.28;;;19.60;77.00;;;;;;5011918;28;20025;-68
2022/07/22 00:06:12;;;;;;;6.38;2.28;;;19.60;77.00;;;;;;5017088;28;20110;-67
2022/07/22 00:08:37;;;;;;;7.93;2.33;;;19.60;77.10;;;;;;5017283;28;20113;-67
2022/07/22 00:11:04;;;;;;;7.97;2.40;;;19.60;77.00;;;;;;5016815;28;20471;-67
2022/07/22 00:13:30;;;;;;;6.63;2.20;;;19.60;77.00;;;;;;5016849;28;20073;-67
2022/07/22 00:15:56;;;;;;;7.18;2.33;;;19.60;77.10;;;;;;5026462;28;20049;-67
2022/07/22 00:18:21;;;;;;;7.10;2.78;;;19.60;77.10;;;;;;5028564;28;20029;-67
2022/07/22 00:20:47;;;;;;;9.23;2.70;;;19.70;77.10;;;;;;5017329;28;20476;-67
2022/07/22 00:23:13;;;;;;;8.00;2.42;;;19.70;77.10;;;;;;5018765;28;20113;-67
2022/07/22 00:25:38;;;;;;;7.28;2.45;;;19.60;77.00;;;;;;5013282;28;20455;-67
2022/07/22 00:28:04;;;;;;;5.70;2.28;;;19.60;77.00;;;;;;5016726;28;20034;-67
2022/07/22 00:30:30;;;;;;;8.77;2.50;;;19.60;76.90;;;;;;5015953;28;20033;-67
2022/07/22 00:32:55;;;;;;;8.65;2.40;;;19.60;76.90;;;;;;5015741;28;20037;-67
2022/07/22 00:35:21;;;;;;;7.30;2.42;;;19.60;76.90;;;;;;5016583;28;20029;-67
2022/07/22 00:37:47;;;;;;;8.65;2.83;;;19.60;76.90;;;;;;5015254;28;20470;-67
2022/07/22 00:40:13;;;;;;;8.10;2.85;;;19.60;77.00;;;;;;5003712;28;20035;-67
2022/07/22 00:42:39;;;;;;;9.23;2.90;;;19.60;77.00;;;;;;5015025;28;20038;-67
2022/07/22 00:45:06;;;;;;;7.70;2.78;;;19.60;77.00;;;;;;5015864;28;20029;-67
2022/07/22 00:47:33;;;;;;;7.30;2.38;;;19.60;77.00;;;;;;5013642;28;20454;-67
2022/07/22 00:49:58;;;;;;;7.65;2.55;;;19.60;77.10;;;;;;5016947;28;20111;-67
2022/07/22 00:52:24;;;;;;;7.47;2.50;;;19.60;77.10;;;;;;5014695;28;20040;-67
2022/07/22 00:54:51;;;;;;;6.45;2.20;;;19.60;77.20;;;;;;5016046;28;20018;-67
2022/07/22 00:57:17;;;;;;;8.05;2.70;;;19.60;77.20;;;;;;5016644;28;20030;-67
2022/07/22 00:59:43;;;;;;;4.65;2.15;;;19.60;77.20;;;;;;5016225;28;20049;-67
2022/07/22 01:02:09;;;;;;;8.48;2.78;;;19.60;77.20;;;;;;5015484;28;20034;-67
2022/07/22 01:04:35;;;;;;;4.57;2.20;;;19.60;77.10;;;;;;5015005;28;20348;-67
2022/07/22 01:07:01;;;;;;;9.20;2.67;;;19.60;77.20;;;;;;5015849;28;20037;-67
2022/07/22 01:09:27;;;;;;;8.02;2.70;;;19.60;77.20;;;;;;5015084;28;20025;-67
2022/07/22 01:11:53;;;;;;;7.75;2.60;;;19.60;77.20;;;;;;5029357;28;20037;-67
2022/07/22 01:14:19;;;;;;;7.68;2.88;;;19.60;77.30;;;;;;5013578;28;20411;-67
2022/07/22 01:16:44;;;;;;;9.63;2.72;;;19.60;77.20;;;;;;5010535;28;20444;-67
2022/07/22 01:19:10;;;;;;;9.57;3.13;;;19.60;77.20;;;;;;5012677;28;20022;-67
2022/07/22 01:21:36;;;;;;;11.02;2.70;;;19.60;77.20;;;;;;5014776;28;20025;-67
2022/07/22 01:24:03;;;;;;;6.82;2.25;;;19.50;77.10;;;;;;5014560;28;20064;-67
2022/07/22 01:26:28;;;;;;;8.35;2.42;;;19.60;77.10;;;;;;5030863;28;20422;-67
2022/07/22 01:28:54;;;;;;;9.05;2.95;;;19.60;77.20;;;;;;4998105;28;20068;-67
2022/07/22 01:31:20;;;;;;;7.25;2.67;;;19.60;77.30;;;;;;5013965;28;20025;-67
2022/07/22 01:33:46;;;;;;;6.35;2.65;;;19.60;77.20;;;;;;5014653;28;20359;-67
2022/07/22 01:36:12;;;;;;;7.50;2.70;;;19.60;77.20;;;;;;5015055;28;20022;-67
2022/07/22 01:38:38;;;;;;;7.05;2.55;;;19.50;77.20;;;;;;5014758;28;20022;-67
2022/07/22 01:41:04;;;;;;;6.13;2.38;;;19.50;77.20;;;;;;5015467;28;20025;-67
2022/07/22 01:43:30;;;;;;;7.13;2.70;;;19.50;77.20;;;;;;5013717;28;20359;-67
2022/07/22 01:45:55;;;;;;;7.25;2.30;;;19.50;77.10;;;;;;5013933;28;20040;-67
2022/07/22 01:48:22;;;;;;;5.38;2.20;;;19.50;76.90;;;;;;5015070;28;20021;-67
2022/07/22 01:50:49;;;;;;;8.30;2.47;;;19.50;76.90;;;;;;5013449;28;20080;-67
2022/07/22 01:53:16;;;;;;;7.35;2.60;;;19.50;76.90;;;;;;5013850;28;20037;-67
2022/07/22 01:55:43;;;;;;;6.38;2.55;;;19.50;77.00;;;;;;5014230;28;20420;-67
2022/07/22 01:58:09;;;;;;;8.77;2.72;;;19.50;77.10;;;;;;5012846;28;20026;-67
2022/07/22 02:00:35;;;;;;;8.05;2.47;;;19.50;77.00;;;;;;5007120;28;20042;-67
2022/07/22 02:03:03;;;;;;;6.70;2.17;;;19.50;76.90;;;;;;5026719;28;20026;-67
2022/07/22 02:05:30;;;;;;;5.90;2.47;;;19.50;77.50;;;;;;5013548;28;20034;-68
2022/07/22 02:08:03;;;;;;;8.05;2.50;;;19.50;76.90;;;;;;5014781;28;20068;-67
2022/07/22 02:10:33;;;;;;;8.32;2.80;;;19.50;76.90;;;;;;5026569;28;20025;-67
2022/07/22 02:12:59;;;;;;;6.95;2.47;;;19.40;76.80;;;;;;5013482;28;20042;-67
2022/07/22 02:15:26;;;;;;;7.50;2.42;;;19.40;76.70;;;;;;5027273;28;20024;-67
2022/07/22 02:17:52;;;;;;;5.93;2.28;;;19.40;76.60;;;;;;5015463;28;20026;-67
2022/07/22 02:20:18;;;;;;;7.55;2.70;;;19.40;76.70;;;;;;5014089;28;20474;-67
2022/07/22 02:22:44;;;;;;;8.55;2.78;;;19.40;76.80;;;;;;5014233;28;20029;-67
2022/07/22 02:25:10;;;;;;;8.68;2.90;;;19.40;76.70;;;;;;5013286;28;20461;-67
2022/07/22 02:27:35;;;;;;;8.57;2.70;;;19.40;76.80;;;;;;5013107;28;20447;-67
2022/07/22 02:30:01;;;;;;;6.00;2.00;;;19.40;76.70;;;;;;5014081;28;20030;-67
2022/07/22 02:32:28;;;;;;;6.95;2.45;;;19.40;76.60;;;;;;5009233;28;20413;-67
2022/07/22 02:34:54;;;;;;;7.60;2.70;;;19.30;76.50;;;;;;5013958;28;20116;-67
2022/07/22 02:37:20;;;;;;;6.90;2.38;;;19.30;76.50;;;;;;5014100;28;20112;-67
2022/07/22 02:39:46;;;;;;;8.95;3.10;;;19.30;76.50;;;;;;5013165;28;20145;-67
2022/07/22 02:42:13;;;;;;;6.50;2.47;;;19.30;76.50;;;;;;5014933;28;20021;-67
2022/07/22 02:44:38;;;;;;;8.10;2.65;;;19.30;76.40;;;;;;5013858;28;20478;-67
2022/07/22 02:47:04;;;;;;;7.30;2.42;;;19.30;76.40;;;;;;5030664;28;20042;-67
2022/07/22 02:49:33;;;;;;;7.18;2.42;;;19.30;76.30;;;;;;5014506;28;20112;-67
2022/07/22 02:51:59;;;;;;;7.80;3.10;;;19.30;76.40;;;;;;5028340;28;20096;-67
2022/07/22 02:54:25;;;;;;;7.07;2.70;;;19.30;76.40;;;;;;5011956;28;20022;-67
2022/07/22 02:56:50;;;;;;;6.90;2.60;;;19.30;76.30;;;;;;5015162;28;20034;-67
2022/07/22 02:59:16;;;;;;;6.00;2.50;;;19.30;76.30;;;;;;5013294;28;20022;-67
2022/07/22 03:01:42;;;;;;;6.80;2.45;;;19.30;76.30;;;;;;4997617;28;20030;-67
2022/07/22 03:04:09;;;;;;;6.82;2.55;;;19.20;76.30;;;;;;5013009;28;20426;-67
2022/07/22 03:06:36;;;;;;;6.70;2.25;;;19.30;76.40;;;;;;5013910;28;20422;-67
2022/07/22 03:09:07;;;;;;;6.47;2.47;;;19.30;76.40;;;;;;5012424;28;20032;-67
2022/07/22 03:11:35;;;;;;;6.95;2.42;;;19.30;76.30;;;;;;5008436;28;20034;-67
2022/07/22 03:14:01;;;;;;;9.27;3.03;;;19.30;76.30;;;;;;5012181;28;20048;-67
2022/07/22 03:16:27;;;;;;;6.18;2.75;;;19.20;76.20;;;;;;5029993;28;20340;-67
2022/07/22 03:18:55;;;;;;;5.93;2.45;;;19.30;76.30;;;;;;4997507;28;20025;-67
2022/07/22 03:21:21;;;;;;;7.05;2.80;;;19.30;76.30;;;;;;5030545;28;20033;-67
2022/07/22 03:23:53;;;;;;;6.13;2.25;;;19.30;76.20;;;;;;5012125;28;20029;-67
2022/07/22 03:26:23;;;;;;;5.43;2.30;;;19.30;76.30;;;;;;5028423;28;20465;-67
2022/07/22 03:28:49;;;;;;;6.05;2.42;;;19.30;76.30;;;;;;5013467;28;20022;-67
2022/07/22 03:31:15;;;;;;;8.20;2.78;;;19.30;76.30;;;;;;5028858;28;20029;-67
2022/07/22 03:33:42;;;;;;;6.85;2.85;;;19.30;76.30;;;;;;5011366;28;20014;-67
2022/07/22 03:36:09;;;;;;;5.25;2.50;;;19.30;76.30;;;;;;5023996;28;20109;-67
2022/07/22 03:38:37;;;;;;;11.15;2.85;;;19.20;76.30;;;;;;5015627;28;20113;-67
2022/07/22 03:41:03;;;;;;;5.63;2.47;;;19.20;76.30;;;;;;5014009;28;20193;-67
2022/07/22 03:43:30;;;;;;;5.93;2.53;;;19.20;76.30;;;;;;5017175;28;20030;-67
2022/07/22 03:45:56;;;;;;;7.07;2.53;;;19.20;76.40;;;;;;5012570;28;20032;-67
2022/07/22 03:48:22;;;;;;;7.63;2.47;;;19.20;76.20;;;;;;5029730;28;20025;-67
2022/07/22 03:50:49;;;;;;;7.53;2.47;;;19.20;76.20;;;;;;5028962;28;20040;-68
2022/07/22 03:53:15;;;;;;;6.57;2.40;;;19.20;76.20;;;;;;5012729;28;20029;-67
2022/07/22 03:55:41;;;;;;;6.70;2.67;;;19.20;76.30;;;;;;5012002;28;20057;-67
2022/07/22 03:58:07;;;;;;;7.45;2.35;;;19.20;76.30;;;;;;5030790;28;20442;-67
2022/07/22 04:00:32;;;;;;;6.70;2.95;;;19.30;76.40;;;;;;5015087;28;20041;-68
2022/07/22 04:03:01;;;;;;;7.32;2.50;;;19.30;76.40;;;;;;5020840;28;20030;-67
2022/07/22 04:05:49;;;;;;;8.32;2.90;;;19.30;77.10;;;;;;4998990;28;20096;-67
2022/07/22 04:08:24;;;;;;;8.07;2.90;;;19.30;76.50;;;;;;4980621;28;20204;-67
2022/07/22 04:10:51;;;;;;;6.35;2.60;;;19.20;76.40;;;;;;4999218;28;20048;-67
2022/07/22 04:13:17;;;;;;;7.53;2.88;;;19.30;76.50;;;;;;4978084;28;20042;-67
2022/07/22 04:15:53;;;;;;;6.05;2.63;;;19.30;76.50;;;;;;4968710;28;20030;-67
2022/07/22 04:18:19;;;;;;;6.15;3.00;;;19.30;76.50;;;;;;5004946;28;20387;-67
2022/07/22 04:20:46;;;;;;;11.38;3.40;;;19.30;76.50;;;;;;4995199;28;20027;-67
2022/07/22 04:23:27;;;;;;;6.78;3.03;;;19.30;76.50;;;;;;4992770;28;20035;-67
2022/07/22 04:26:03;;;;;;;8.40;2.92;;;19.30;76.50;;;;;;4991219;28;20027;-67
2022/07/22 04:28:33;;;;;;;7.38;3.10;;;19.30;76.40;;;;;;4996246;28;20093;-68
2022/07/22 04:30:58;;;;;;;9.13;2.97;;;19.30;76.30;;;;;;4994575;28;20082;-67
2022/07/22 04:33:24;;;;;;;7.63;2.55;;;19.40;76.30;;;;;;4996666;28;20036;-67
2022/07/22 04:35:50;;;;;;;8.23;2.92;;;19.40;76.30;;;;;;4995845;28;20034;-68
2022/07/22 04:38:17;;;;;;;7.15;3.00;;;19.40;76.20;;;;;;4976168;28;20089;-68
2022/07/22 04:40:52;;;;;;;6.38;2.92;;;19.40;76.10;;;;;;4991294;28;20031;-68
2022/07/22 04:43:17;;;;;;;9.35;3.05;;;19.40;75.80;;;;;;5003130;28;20041;-67
2022/07/22 04:45:43;;;;;;;7.03;3.03;;;19.40;75.80;;;;;;5016993;28;20412;-67
2022/07/22 04:48:09;;;;;;;8.00;2.88;;;19.50;75.80;;;;;;5014158;28;20081;-66
2022/07/22 04:50:36;;;;;;;7.32;2.70;;;19.40;75.70;;;;;;5012566;28;20034;-66
2022/07/22 04:53:02;;;;;;;7.18;2.50;;;19.40;75.80;;;;;;5014920;28;20034;-66
2022/07/22 04:55:28;;;;;;;5.78;2.25;;;19.40;76.30;;;;;;5016067;28;20520;-66
2022/07/22 04:57:53;;;;;;;6.25;2.13;;;19.30;75.40;;;;;;5017878;28;20029;-66
2022/07/22 05:00:19;;;;;;;4.35;2.10;;;19.40;75.50;;;;;;5016487;28;20075;-67
2022/07/22 05:02:51;;;;;;;4.30;2.03;;;19.30;75.40;;;;;;5029499;28;20026;-66
2022/07/22 05:05:17;;;;;;;5.43;2.05;;;19.30;75.30;;;;;;5016033;28;20030;-67
2022/07/22 05:07:42;;;;;;;4.40;1.95;;;19.30;75.30;;;;;;5015203;28;20038;-66
2022/07/22 05:10:09;;;;;;;5.43;2.00;;;19.30;75.30;;;;;;5015852;28;20021;-66
2022/07/22 05:12:35;;;;;;;7.50;2.63;;;19.30;75.10;;;;;;5015733;28;20033;-66
2022/07/22 05:15:00;;;;;;;7.15;2.20;;;19.30;75.20;;;;;;5015946;28;20038;-66
2022/07/22 05:17:27;;;;;;;7.05;2.10;;;19.20;75.10;;;;;;5014847;28;20025;-66
2022/07/22 05:20:04;;;;;;;5.82;2.17;;;19.30;75.10;;;;;;5016682;28;20028;-66
2022/07/22 05:22:30;;;;;;;6.60;2.10;;;19.20;74.90;;;;;;5031170;28;20380;-66
2022/07/22 05:24:57;;;;;;;7.50;2.25;;;19.20;74.90;;;;;;5001034;28;20030;-66
2022/07/22 05:27:22;;;;;;;5.95;1.98;;;19.20;74.90;;;;;;5023902;28;20715;-66
2022/07/22 05:29:48;;;;;;;6.50;2.08;;;19.30;74.90;;;;;;5015644;28;20022;-66
2022/07/22 05:32:14;;;;;;;3.88;1.95;;;19.20;74.50;;;;;;5028795;28;20475;-66
2022/07/22 05:34:40;;;;;;;5.38;2.00;;;19.30;74.60;;;;;;5015358;28;20029;-67
2022/07/22 05:37:06;;;;;;;6.20;2.15;;;19.30;74.50;;;;;;4992140;28;20022;-67
2022/07/22 05:39:32;;;;;;;6.38;2.45;;;19.30;74.30;;;;;;5015128;28;20036;-66
2022/07/22 05:41:58;;;;;;;5.75;1.92;;;19.30;74.10;;;;;;5012505;28;20036;-67
2022/07/22 05:44:23;;;;;;;6.10;1.90;;;19.30;74.00;;;;;;5020833;28;20439;-66
2022/07/22 05:46:49;;;;;;;7.57;2.10;;;19.30;73.70;;;;;;5014312;28;20045;-66
2022/07/22 05:49:15;;;;;;;5.80;1.63;;;19.30;73.70;;;;;;5015551;28;20038;-67
2022/07/22 05:51:51;;;;;;;4.95;1.70;;;19.30;73.50;;;;;;5008583;28;20029;-66
2022/07/22 05:54:17;;;;;;;4.93;1.95;;;19.30;73.30;;;;;;5010376;28;20022;-66
2022/07/22 05:56:43;;;;;;;6.20;2.13;;;19.40;73.30;;;;;;5029627;28;20022;-65
2022/07/22 05:59:09;;;;;;;4.63;1.85;;;19.40;73.30;;;;;;5015128;28;20040;-65
2022/07/22 06:01:36;;;;;;;6.57;2.00;;;19.40;73.20;;;;;;5019044;28;20034;-65
2022/07/22 06:04:11;;;;;;;7.55;1.92;;;19.40;73.30;;;;;;5013243;28;20037;-65
2022/07/22 06:06:36;;;;;;;4.55;1.75;;;19.50;73.20;;;;;;5013693;28;20038;-66
2022/07/22 06:09:02;;;;;;;5.80;1.98;;;19.50;72.90;;;;;;5014567;28;20029;-66
2022/07/22 06:11:28;;;;;;;7.10;1.80;;;19.50;72.70;;;;;;5014034;28;20030;-66
2022/07/22 06:13:54;;;;;;;6.50;1.60;;;19.50;72.90;;;;;;5009857;28;20588;-67
2022/07/22 06:16:19;;;;;;;6.00;1.90;;;19.60;72.50;;;;;;5007611;28;20018;-66
2022/07/22 06:18:49;;;;;;;5.10;1.88;;;19.60;72.30;;;;;;5010657;28;20022;-66
2022/07/22 06:21:14;;;;;;;7.47;1.83;;;19.60;72.30;;;;;;5017456;28;20025;-66
2022/07/22 06:23:40;;;;;;;7.05;1.75;;;19.60;72.20;;;;;;5017191;28;20031;-67
2022/07/22 06:26:06;;;;;;;5.90;1.63;;;19.60;72.00;;;;;;5021706;28;20402;-67
2022/07/22 06:28:33;;;;;;;5.88;1.88;;;19.60;71.80;;;;;;4997434;28;20026;-67
2022/07/22 06:30:59;;;;;;;5.32;1.85;;;19.70;71.60;;;;;;5004004;28;20036;-67
2022/07/22 06:33:26;;;;;;;9.43;2.08;;;19.70;71.30;;;;;;5029591;28;20022;-67
2022/07/22 06:35:52;;;;;;;4.80;2.03;;;19.70;71.10;;;;;;5012166;28;20451;-66
2022/07/22 06:38:18;;;;;;;6.53;1.75;;;19.70;71.20;;;;;;5013536;28;20046;-67
2022/07/22 06:41:02;;;;;;;7.72;2.00;;;19.70;71.30;;;;;;5011188;28;20041;-66
2022/07/22 06:43:43;;;;;;;;;;;19.70;71.20;;;;;;5018540;28;20058;-67
2022/07/22 06:46:44;;;;;;;6.45;1.90;;;19.70;71.20;;;;;;5009859;28;20330;-67
2022/07/22 06:49:10;;;;;;;6.78;1.77;;;19.70;71.30;;;;;;4996127;28;20113;-67
2022/07/22 06:51:35;;;;;;;4.03;1.67;;;19.70;71.30;;;;;;5013130;28;20374;-66
2022/07/22 06:54:01;;;;;;;3.63;1.33;;;19.70;71.10;;;;;;5015147;28;20366;-67
2022/07/22 06:56:27;;;;;;;7.60;1.95;;;19.80;71.20;;;;;;5029422;28;20029;-68
2022/07/22 06:58:52;;;;;;;5.20;1.50;;;19.80;71.20;;;;;;5027722;28;20033;-67
2022/07/22 07:01:19;;;;;;;6.80;1.58;;;19.80;70.90;;;;;;5012151;28;20088;-67
2022/07/22 07:03:55;;;;;;;4.25;1.60;;;19.90;70.90;;;;;;5010474;28;20040;-67
2022/07/22 07:06:21;;;;;;;5.05;1.60;;;19.90;70.70;;;;;;5014163;28;20034;-68
2022/07/22 07:09:02;;;;;;;;;;;20.00;70.50;;;;;;5008553;28;20080;-68
2022/07/22 07:11:28;;;;;;;4.63;1.70;;;20.00;70.40;;;;;;5005520;28;19918;-67
2022/07/22 07:13:54;;;;;;;4.50;1.35;;;20.10;70.40;;;;;;5025951;28;20081;-67
2022/07/22 07:16:20;;;;;;;5.53;1.50;;;20.10;70.10;;;;;;5012687;28;20396;-68
2022/07/22 07:18:46;;;;;;;6.13;1.80;;;20.20;70.20;;;;;;5014458;28;20022;-67
2022/07/22 07:21:12;;;;;;;5.82;1.42;;;20.30;70.10;;;;;;5022213;28;20061;-66
2022/07/22 07:23:37;;;;;;;5.47;1.60;;;20.30;69.90;;;;;;5013129;28;20056;-66
2022/07/22 07:26:03;;;;;;;6.18;1.70;;;20.30;69.40;;;;;;5026973;28;20033;-67
2022/07/22 07:28:30;;;;;;;4.55;1.80;;;20.40;69.30;;;;;;5016883;28;20387;-67
2022/07/22 07:31:02;;;;;;;3.95;1.50;;;20.40;69.40;;;;;;5014232;28;20544;-67
2022/07/22 07:33:28;;;;;;;6.28;1.60;;;20.40;69.40;;;;;;5012344;28;20029;-67
2022/07/22 07:35:54;;;;;;;6.40;1.55;;;20.40;69.40;;;;;;5013796;28;20038;-67
2022/07/22 07:38:30;;;;;;;6.28;1.60;;;20.40;69.60;;;;;;4987892;28;20025;-66
2022/07/22 07:40:55;;;;;;;6.13;1.92;;;20.40;69.30;;;;;;5012149;28;20022;-66
2022/07/22 07:43:22;;;;;;;5.70;1.50;;;20.40;69.10;;;;;;5012494;28;20026;-68
2022/07/22 07:45:48;;;;;;;4.32;1.38;;;20.50;69.10;;;;;;5011901;28;20026;-67
2022/07/22 07:48:14;;;;;;;5.82;1.73;;;20.50;69.10;;;;;;5012405;28;20100;-67
2022/07/22 07:50:41;;;;;;;5.07;1.85;;;20.40;69.10;;;;;;5015775;28;20065;-67
2022/07/22 07:53:06;;;;;;;4.18;1.48;;;20.40;69.20;;;;;;5013689;28;20394;-67
2022/07/22 07:55:35;;;;;;;5.32;1.60;;;20.40;69.20;;;;;;5009106;28;20470;-67
2022/07/22 07:58:02;;;;;;;5.93;1.83;;;20.40;69.30;;;;;;4998248;28;20019;-67
2022/07/22 08:00:32;;;;;;;6.53;2.08;;;20.40;69.50;;;;;;5018806;28;20022;-68
2022/07/22 08:02:58;;;;;;;4.50;1.70;;;20.40;69.70;;;;;;5026238;28;20026;-69
2022/07/22 08:05:26;;;;;;;4.97;2.05;;;20.40;69.70;;;;;;5030504;28;20104;-68
2022/07/22 08:07:52;;;;;;;5.22;1.40;;;20.50;69.90;;;;;;5015811;28;20358;-68
2022/07/22 08:10:19;;;;;;;7.20;1.70;;;20.40;69.80;;;;;;5012343;28;20026;-68
2022/07/22 08:13:02;;;;;;;5.43;1.85;;;20.50;69.90;;;;;;5012952;28;20100;-68
2022/07/22 08:15:51;;;;;;;6.53;1.80;;;20.50;69.80;;;;;;5012942;28;20109;-68
2022/07/22 08:18:21;;;;;;;4.32;1.60;;;20.50;69.60;;;;;;5016274;28;20018;-68
2022/07/22 08:20:46;;;;;;;5.90;2.13;;;20.50;70.20;;;;;;5015773;28;20450;-68
2022/07/22 08:23:12;;;;;;;9.23;2.30;;;20.60;69.50;;;;;;5029648;28;20033;-67
2022/07/22 08:25:40;;;;;;;6.20;1.92;;;20.60;69.30;;;;;;5028657;28;20092;-68
2022/07/22 08:28:06;;;;;;;7.05;1.60;;;20.70;69.10;;;;;;5012631;28;20038;-67
2022/07/22 08:30:32;;;;;;;5.93;1.98;;;20.80;69.00;;;;;;5016797;28;20100;-69
2022/07/22 08:32:58;;;;;;;5.43;1.70;;;20.80;68.80;;;;;;5012047;28;20443;-69
2022/07/22 08:35:24;;;;;;;3.58;1.60;;;20.90;68.40;;;;;;5017740;28;20077;-69
2022/07/22 08:37:51;;;;;;;4.82;1.85;;;20.90;68.10;;;;;;5016131;28;20064;-69
2022/07/22 08:40:18;;;;;;;4.35;1.80;;;21.00;68.00;;;;;;5016709;28;20054;-69
2022/07/22 08:42:47;;;;;;;5.47;1.77;;;21.10;68.00;;;;;;5016570;28;20467;-69
2022/07/22 08:45:15;;;;;;;7.30;2.10;;;21.20;67.90;;;;;;5016927;28;20044;-69
2022/07/22 08:47:44;;;;;;;6.88;2.25;;;21.40;67.20;;;;;;5016804;28;20443;-69
2022/07/22 08:50:25;;;;;;;4.75;1.70;;;21.50;66.70;;;;;;5017610;28;20113;-69
2022/07/22 08:52:55;;;;;;;4.72;1.80;;;21.60;66.50;;;;;;4997033;28;20058;-69
2022/07/22 08:55:20;;;;;;;6.35;2.17;;;21.70;66.30;;;;;;5011224;28;20065;-69
2022/07/22 08:57:47;;;;;;;6.70;2.05;;;21.80;66.10;;;;;;5015772;28;20072;-69
2022/07/22 09:00:17;;;;;;;6.97;2.00;;;21.90;65.90;;;;;;5015596;28;20061;-69
2022/07/22 09:02:43;;;;;;;7.95;2.22;;;21.90;65.50;;;;;;5016368;28;20026;-69
2022/07/22 09:05:13;;;;;;;6.07;1.92;;;21.90;65.20;;;;;;5032421;28;20026;-69
2022/07/22 09:07:42;;;;;;;5.10;1.70;;;21.90;65.10;;;;;;5015547;28;20030;-69
2022/07/22 09:10:15;;;;;;;6.97;2.13;;;21.90;65.00;;;;;;5031938;28;20033;-69
2022/07/22 09:13:02;;;;;;;4.60;1.90;;;21.70;65.00;;;;;;5016218;28;20056;-69
2022/07/22 09:15:54;;;;;;;7.05;2.20;;;21.60;65.40;;;;;;5016421;28;20034;-69
2022/07/22 09:18:49;;;;;;;4.30;1.33;;;21.50;65.70;;;;;;5016688;28;20073;-69
2022/07/22 09:21:39;;;;;;;5.30;1.92;;;21.50;65.90;;;;;;5016437;28;20048;-69
2022/07/22 09:24:31;;;;;;;5.28;2.00;;;21.40;66.20;;;;;;5016127;28;20415;-69
2022/07/22 09:27:27;;;;;;;4.07;1.80;;;21.40;66.80;;;;;;5015609;28;20033;-69
2022/07/22 09:30:16;;;;;;;5.72;1.75;;;21.30;67.70;;;;;;5016649;28;20034;-69
2022/07/22 09:32:51;;;;;;;4.15;1.80;;;21.30;67.00;;;;;;4994883;28;20034;-69
2022/07/22 09:35:33;;;;;;;7.53;1.98;;;21.40;66.80;;;;;;5011798;28;20029;-69
2022/07/22 09:38:09;;;;;;;8.13;2.33;;;21.50;66.60;;;;;;5015127;28;20025;-67
2022/07/22 09:40:41;;;;;;;5.05;1.83;;;21.60;65.80;;;;;;5012803;28;20383;-68
2022/07/22 09:43:13;;;;;;;7.13;2.00;;;21.70;65.10;;;;;;5014041;28;20022;-68
2022/07/22 09:45:48;;;;;;;5.00;1.90;;;21.80;64.90;;;;;;5014019;28;20456;-67
2022/07/22 09:48:16;;;;;;;3.58;1.70;;;21.80;64.50;;;;;;5014116;28;20026;-69
2022/07/22 09:51:10;;;;;;;6.65;1.70;;;21.80;64.40;;;;;;5004458;28;20133;-69
2022/07/22 09:53:59;;;;;;;4.78;1.70;;;21.80;64.50;;;;;;5013652;28;20092;-66
2022/07/22 09:56:30;;;;;;;5.40;1.65;;;21.80;64.10;;;;;;5012287;28;20393;-70
2022/07/22 09:58:56;;;;;;;5.30;1.75;;;21.90;63.80;;;;;;5014611;28;20036;-69
2022/07/22 10:01:28;;;;;;;5.35;1.80;;;22.00;63.60;;;;;;5025301;28;20129;-69
2022/07/22 10:03:55;;;;;;;3.58;1.60;;;22.10;63.10;;;;;;5013411;28;20045;-69
2022/07/22 10:06:21;;;;;;;3.33;1.50;;;22.10;62.60;;;;;;5025007;28;20025;-71
2022/07/22 10:08:48;;;;;;;5.40;1.80;;;22.10;62.70;;;;;;5012401;28;20025;-69
2022/07/22 10:11:15;;;;;;;3.47;1.48;;;22.10;62.40;;;;;;4991112;28;20053;-69
2022/07/22 10:13:42;;;;;;;4.88;1.88;;;22.10;62.20;;;;;;4996549;28;20045;-69
2022/07/22 10:16:10;;;;;;;5.50;1.80;;;22.20;62.30;;;;;;5027698;28;20041;-69
2022/07/22 10:18:37;;;;;;;6.28;1.90;;;22.20;62.10;;;;;;5008804;28;20061;-71
2022/07/22 10:21:05;;;;;;;6.88;1.55;;;22.20;61.60;;;;;;5007539;28;20459;-69
2022/07/22 10:23:31;;;;;;;4.60;1.80;;;22.30;61.40;;;;;;5026017;28;20022;-73
2022/07/22 10:26:00;;;;;;;6.07;1.77;;;22.30;61.10;;;;;;5015885;28;20040;-70
2022/07/22 10:28:34;;;;;;;7.78;1.80;;;22.40;60.70;;;;;;5011957;28;20041;-70
2022/07/22 10:31:20;;;;;;;4.25;1.70;;;22.50;60.50;;;;;;4995656;28;20083;-67
2022/07/22 10:33:52;;;;;;;4.20;1.48;;;22.60;60.20;;;;;;5006976;28;20352;-73
2022/07/22 10:36:35;;;;;;;4.50;1.63;;;22.70;60.10;;;;;;5010399;28;20049;-71
2022/07/22 10:39:07;;;;;;;4.00;1.40;;;22.80;59.60;;;;;;4990411;28;20022;-71
2022/07/22 10:41:35;;;;;;;3.42;1.60;;;22.80;59.10;;;;;;5010008;28;20029;-69
2022/07/22 10:44:01;;;;;;;6.15;1.80;;;22.90;58.90;;;;;;5011049;28;20034;-68
2022/07/22 10:46:51;;;;;;;3.53;1.30;;;23.00;58.70;;;;;;5010780;28;20045;-73
2022/07/22 10:49:18;;;;;;;6.05;1.63;;;23.10;58.40;;;;;;5026229;28;20030;-71
2022/07/22 10:52:06;;;;;;;5.65;1.98;;;23.10;58.40;;;;;;5011943;28;20041;-70
2022/07/22 10:54:32;;;;;;;4.72;1.58;;;23.10;58.40;;;;;;5013957;28;20032;-69
2022/07/22 10:56:59;;;;;;;4.57;1.52;;;23.10;58.60;;;;;;5011211;28;21091;-73
2022/07/22 10:59:25;;;;;;;3.92;1.60;;;23.10;58.40;;;;;;5010947;28;20076;-72
2022/07/22 11:01:53;;;;;;;6.35;1.88;;;23.00;58.00;;;;;;4992942;28;20049;-72
2022/07/22 11:04:21;;;;;;;6.03;1.73;;;23.00;58.00;;;;;;5012735;28;20030;-72
2022/07/22 11:06:50;;;;;;;4.32;1.40;;;23.10;57.90;;;;;;5011680;28;20038;-70
2022/07/22 11:09:18;;;;;;;3.40;1.38;;;23.20;57.50;;;;;;5012096;28;20026;-70
2022/07/22 11:11:50;;;;;;;6.03;1.40;;;23.30;57.10;;;;;;5014350;28;20030;-70
2022/07/22 11:14:20;;;;;;;3.85;1.60;;;23.40;57.20;;;;;;5024000;28;20091;-68
2022/07/22 11:16:48;;;;;;;5.88;1.80;;;23.50;57.40;;;;;;5010028;28;20058;-68
2022/07/22 11:19:18;;;;;;;4.10;1.35;;;23.50;57.00;;;;;;5011823;28;20037;-65
2022/07/22 11:21:50;;;;;;;5.03;1.48;;;23.50;56.60;;;;;;5013891;28;20065;-64
2022/07/22 11:24:16;;;;;;;4.53;1.52;;;23.50;56.10;;;;;;5013134;28;20470;-64
2022/07/22 11:26:49;;;;;;;3.67;1.50;;;23.50;56.10;;;;;;5008588;28;20112;-64
2022/07/22 11:29:37;;;;;;;5.50;1.90;;;23.50;56.10;;;;;;5014529;28;20029;-64
2022/07/22 11:32:09;;;;;;;4.88;1.65;;;23.40;56.00;;;;;;5025579;28;20058;-65
2022/07/22 11:34:45;;;;;;;6.95;1.50;;;23.40;56.20;;;;;;5013100;28;20471;-64
2022/07/22 11:37:11;;;;;;;5.93;1.77;;;23.40;55.90;;;;;;5015589;28;20052;-63
2022/07/22 11:39:37;;;;;;;4.05;1.90;;;23.40;56.00;;;;;;5013268;28;20026;-64
2022/07/22 11:42:03;;;;;;;5.68;2.28;;;23.40;56.10;;;;;;5012939;28;20517;-65
2022/07/22 11:44:31;;;;;;;3.78;1.70;;;23.50;55.90;;;;;;5013766;28;20443;-65
2022/07/22 11:47:00;;;;;;;4.75;1.92;;;23.60;55.80;;;;;;5013158;28;20075;-66
2022/07/22 11:49:33;;;;;;;5.22;1.80;;;23.60;55.70;;;;;;5011105;28;20060;-64
2022/07/22 11:51:59;;;;;;;4.43;1.42;;;23.50;55.70;;;;;;5014588;28;20088;-64
2022/07/22 11:54:26;;;;;;;3.40;1.50;;;23.50;56.00;;;;;;5001960;28;20033;-65
2022/07/22 11:56:51;;;;;;;4.82;1.70;;;23.40;55.80;;;;;;5013052;28;20034;-65
2022/07/22 11:59:17;;;;;;;4.30;1.60;;;23.40;56.00;;;;;;5009288;28;20037;-65
2022/07/22 12:01:45;;;;;;;4.28;1.70;;;23.30;56.20;;;;;;5002355;28;20031;-64
2022/07/22 12:04:38;;;;;;;5.60;1.70;;;23.30;56.30;;;;;;5027933;28;20038;-65
2022/07/22 12:07:04;;;;;;;4.93;1.90;;;23.20;56.20;;;;;;5011512;28;20468;-64
2022/07/22 12:09:33;;;;;;;4.97;1.75;;;23.20;56.60;;;;;;5012893;28;20462;-64
2022/07/22 12:11:59;;;;;;;4.50;1.55;;;23.10;56.70;;;;;;5012751;28;20037;-66
2022/07/22 12:14:29;;;;;;;5.07;1.80;;;23.10;56.40;;;;;;5011725;28;20375;-65
2022/07/22 12:16:58;;;;;;;4.73;1.80;;;23.10;56.70;;;;;;5013226;28;20041;-64
2022/07/22 12:19:29;;;;;;;6.25;1.88;;;23.10;56.50;;;;;;5026031;28;20042;-66
2022/07/22 12:21:59;;;;;;;5.97;2.03;;;23.00;56.60;;;;;;5014122;28;20359;-63
2022/07/22 12:24:31;;;;;;;4.07;1.40;;;23.10;56.50;;;;;;5013396;28;20344;-64
2022/07/22 12:27:01;;;;;;;4.03;1.67;;;23.10;56.00;;;;;;5013266;28;20109;-64
2022/07/22 12:29:29;;;;;;;4.33;1.80;;;23.10;56.00;;;;;;5011536;28;20037;-64
2022/07/22 12:32:01;;;;;;;5.78;1.70;;;23.10;55.90;;;;;;5011365;28;20120;-64
2022/07/22 12:34:36;;;;;;;6.88;1.52;;;23.30;56.10;;;;;;5012449;28;20425;-65
2022/07/22 12:37:21;;;;;;;4.85;1.52;;;23.40;55.50;;;;;;5015686;28;20026;-64
2022/07/22 12:40:08;;;;;;;3.63;1.42;;;23.50;55.30;;;;;;5011959;28;20350;-66
2022/07/22 12:42:36;;;;;;;3.45;1.50;;;23.40;55.30;;;;;;5013140;28;20033;-63
2022/07/22 12:45:09;;;;;;;3.50;1.48;;;23.40;55.40;;;;;;5013840;28;20037;-64
2022/07/22 12:47:45;;;;;;;4.22;1.80;;;23.40;55.60;;;;;;5016071;28;20033;-64
2022/07/22 12:50:24;;;;;;;4.50;1.60;;;23.50;55.20;;;;;;5014656;28;20041;-64
2022/07/22 12:52:53;;;;;;;5.53;1.60;;;23.50;55.10;;;;;;5009422;28;20120;-63
2022/07/22 12:55:19;;;;;;;4.40;1.90;;;23.50;55.10;;;;;;5014040;28;20022;-64
2022/07/22 12:57:44;;;;;;;4.63;1.58;;;23.50;54.90;;;;;;5011193;28;20470;-64